createdAt,value
2023-10-30T00:02:20.125Z,1.52
2023-10-30T00:04:52.664Z,1.38
2023-10-30T00:07:26.605Z,1.35
2023-10-30T00:09:56.448Z,1.60
2023-10-30T00:12:26.202Z,1.60
2023-10-30T00:14:56.180Z,1.42
2023-10-30T00:17:25.817Z,1.80
2023-10-30T00:19:57.783Z,1.80
2023-10-30T00:22:27.598Z,1.50
2023-10-30T00:24:57.503Z,1.48
2023-10-30T00:27:27.208Z,1.30
2023-10-30T00:29:57.175Z,1.45
2023-10-30T00:32:26.986Z,1.42
2023-10-30T00:34:58.954Z,1.58
2023-10-30T00:37:29.515Z,1.52
2023-10-30T00:39:59.021Z,1.20
2023-10-30T00:42:30.507Z,1.70
2023-10-30T00:45:00.368Z,1.60
2023-10-30T00:47:30.137Z,1.10
2023-10-30T00:50:01.753Z,1.30
2023-10-30T00:52:31.469Z,1.45
2023-10-30T00:55:01.284Z,1.20
2023-10-30T00:57:31.215Z,1.13
2023-10-30T01:00:01.015Z,1.40
2023-10-30T01:02:31.610Z,1.38
2023-10-30T01:05:03.734Z,1.10
2023-10-30T01:07:33.910Z,1.20
2023-10-30T01:10:03.848Z,1.42
2023-10-30T01:12:33.721Z,1.40
2023-10-30T01:15:03.448Z,1.30
2023-10-30T01:17:33.401Z,1.10
2023-10-30T01:20:07.334Z,1.25
2023-10-30T01:22:37.130Z,1.33
2023-10-30T01:25:07.529Z,1.50
2023-10-30T01:27:37.200Z,1.50
2023-10-30T01:30:08.500Z,1.55
2023-10-30T01:32:38.263Z,1.70
2023-10-30T01:35:11.058Z,1.50
2023-10-30T01:37:40.987Z,1.45
2023-10-30T01:40:12.809Z,1.30
2023-10-30T01:42:42.507Z,1.30
2023-10-30T01:45:13.021Z,1.40
2023-10-30T01:47:43.699Z,1.33
2023-10-30T01:50:17.638Z,1.25
2023-10-30T01:52:48.607Z,1.30
2023-10-30T01:55:18.387Z,1.00
2023-10-30T01:57:48.953Z,1.30
2023-10-30T02:00:19.468Z,1.40
2023-10-30T02:02:49.564Z,1.30
2023-10-30T02:05:20.728Z,1.27
2023-10-30T02:07:50.644Z,1.20
2023-10-30T02:10:20.409Z,1.23
2023-10-30T02:12:52.364Z,1.40
2023-10-30T02:15:22.514Z,1.20
2023-10-30T02:17:52.360Z,1.30
2023-10-30T02:20:24.112Z,1.17
2023-10-30T02:22:53.805Z,1.20
2023-10-30T02:25:25.518Z,1.17
2023-10-30T02:27:56.177Z,1.20
2023-10-30T02:30:27.155Z,1.23
2023-10-30T02:32:56.968Z,1.20
2023-10-30T02:35:26.938Z,1.17
2023-10-30T02:37:56.590Z,1.40
2023-10-30T02:40:28.270Z,1.08
2023-10-30T02:42:58.119Z,1.10
2023-10-30T02:45:27.813Z,0.98
2023-10-30T02:47:57.627Z,1.20
2023-10-30T02:50:27.465Z,1.13
2023-10-30T02:52:57.201Z,1.05
2023-10-30T02:55:29.005Z,1.20
2023-10-30T02:57:58.770Z,1.10
2023-10-30T03:00:28.785Z,1.00
2023-10-30T03:02:58.637Z,0.98
2023-10-30T03:05:28.631Z,1.20
2023-10-30T03:07:58.490Z,1.17
2023-10-30T03:10:30.047Z,1.10
2023-10-30T03:13:00.003Z,1.00
2023-10-30T03:15:29.625Z,0.95
2023-10-30T03:17:59.380Z,1.00
2023-10-30T03:20:29.136Z,1.05
2023-10-30T03:22:58.834Z,0.88
2023-10-30T03:25:30.340Z,0.90
2023-10-30T03:28:00.077Z,0.88
2023-10-30T03:30:29.781Z,0.80
2023-10-30T03:32:59.632Z,0.88
2023-10-30T03:35:29.469Z,1.02
2023-10-30T03:37:59.442Z,1.25
2023-10-30T03:40:31.503Z,0.95
2023-10-30T03:43:01.363Z,0.85
2023-10-30T03:45:31.132Z,0.80
2023-10-30T03:48:00.988Z,0.73
2023-10-30T03:50:30.893Z,1.00
2023-10-30T03:53:00.811Z,0.65
2023-10-30T03:55:32.604Z,0.93
2023-10-30T03:58:03.503Z,1.20
2023-10-30T04:00:33.349Z,1.00
2023-10-30T04:03:03.167Z,0.70
2023-10-30T04:05:33.339Z,0.90
2023-10-30T04:08:03.479Z,1.10
2023-10-30T04:10:35.061Z,0.88
2023-10-30T04:13:04.791Z,1.08
2023-10-30T04:15:37.711Z,1.02
2023-10-30T04:18:07.286Z,1.10
2023-10-30T04:20:37.002Z,1.00
2023-10-30T04:23:06.869Z,1.00
2023-10-30T04:25:38.388Z,0.90
2023-10-30T04:28:08.085Z,1.08
2023-10-30T04:30:38.172Z,1.10
2023-10-30T04:33:08.124Z,0.80
2023-10-30T04:35:37.896Z,0.90
2023-10-30T04:38:07.751Z,1.27
2023-10-30T04:40:39.460Z,1.13
2023-10-30T04:43:08.972Z,0.98
2023-10-30T04:45:38.722Z,1.00
2023-10-30T04:48:08.783Z,1.15
2023-10-30T04:50:38.441Z,0.80
2023-10-30T04:53:08.034Z,0.90
2023-10-30T04:55:39.646Z,1.00
2023-10-30T04:58:09.401Z,0.85
2023-10-30T05:00:39.274Z,1.10
2023-10-30T05:03:09.594Z,1.10
2023-10-30T05:05:39.555Z,0.93
2023-10-30T05:08:09.427Z,1.05
2023-10-30T05:10:41.211Z,1.08
2023-10-30T05:13:10.863Z,0.77
2023-10-30T05:15:40.680Z,0.85
2023-10-30T05:18:10.487Z,0.95
2023-10-30T05:20:40.469Z,1.08
2023-10-30T05:23:12.108Z,0.90
2023-10-30T05:25:43.473Z,0.80
2023-10-30T05:28:13.596Z,0.73
2023-10-30T05:30:49.815Z,0.85
2023-10-30T05:33:19.846Z,0.80
2023-10-30T05:35:54.681Z,0.98
2023-10-30T05:38:25.341Z,0.73
2023-10-30T05:40:58.800Z,0.70
2023-10-30T05:43:29.412Z,0.93
2023-10-30T05:45:59.484Z,0.70
2023-10-30T05:48:29.241Z,0.90
2023-10-30T05:51:01.718Z,0.80
2023-10-30T05:53:31.365Z,0.85
2023-10-30T05:56:03.059Z,1.00
2023-10-30T05:58:32.950Z,1.05
2023-10-30T06:01:02.440Z,1.00
2023-10-30T06:03:32.081Z,0.98
2023-10-30T06:06:01.870Z,0.98
2023-10-30T06:08:31.671Z,1.13
2023-10-30T06:11:04.774Z,0.90
2023-10-30T06:13:34.640Z,0.95
2023-10-30T06:16:04.377Z,0.80
2023-10-30T06:18:34.069Z,0.90
2023-10-30T06:21:04.742Z,1.10
2023-10-30T06:23:34.654Z,1.00
2023-10-30T06:26:11.448Z,1.08
2023-10-30T06:28:49.936Z,0.73
2023-10-30T06:31:21.116Z,1.35
2023-10-30T06:33:51.011Z,1.05
2023-10-30T06:36:21.045Z,0.80
2023-10-30T06:38:50.623Z,1.10
2023-10-30T06:41:22.214Z,1.10
2023-10-30T06:43:52.709Z,1.20
2023-10-30T06:46:22.561Z,1.30
2023-10-30T06:48:52.286Z,1.08
2023-10-30T06:51:22.018Z,1.30
2023-10-30T06:53:52.324Z,1.10
2023-10-30T06:56:23.827Z,1.10
2023-10-30T06:58:53.566Z,0.95
2023-10-30T07:01:24.179Z,0.95
2023-10-30T07:03:54.149Z,0.98
2023-10-30T07:06:24.011Z,1.10
2023-10-30T07:08:57.035Z,1.20
2023-10-30T07:11:28.778Z,1.08
2023-10-30T07:14:00.234Z,1.00
2023-10-30T07:16:29.847Z,1.10
2023-10-30T07:19:00.046Z,1.27
2023-10-30T07:21:31.444Z,1.15
2023-10-30T07:24:01.177Z,1.30
2023-10-30T07:26:32.591Z,1.23
2023-10-30T07:29:02.316Z,1.10
2023-10-30T07:31:32.060Z,1.13
2023-10-30T07:34:01.760Z,1.13
2023-10-30T07:36:31.269Z,1.50
2023-10-30T07:39:03.393Z,1.20
2023-10-30T07:41:35.027Z,1.20
2023-10-30T07:44:04.718Z,1.40
2023-10-30T07:46:34.551Z,1.23
2023-10-30T07:49:09.215Z,1.50
2023-10-30T07:51:39.038Z,1.10
2023-10-30T07:54:09.234Z,1.23
2023-10-30T07:56:41.018Z,1.27
2023-10-30T07:59:10.974Z,1.38
2023-10-30T08:01:40.924Z,1.20
2023-10-30T08:04:11.308Z,1.38
2023-10-30T08:06:40.996Z,1.20
2023-10-30T08:09:11.091Z,1.40
2023-10-30T08:11:43.678Z,1.20
2023-10-30T08:14:13.322Z,1.30
2023-10-30T08:16:43.223Z,1.30
2023-10-30T08:19:13.236Z,1.20
2023-10-30T08:21:42.846Z,1.20
2023-10-30T08:24:12.992Z,1.45
2023-10-30T08:26:44.944Z,1.15
2023-10-30T08:29:14.765Z,1.40
2023-10-30T08:31:46.663Z,1.10
2023-10-30T08:34:16.349Z,1.23
2023-10-30T08:36:46.137Z,1.48
2023-10-30T08:39:15.809Z,1.58
2023-10-30T08:41:47.560Z,1.42
2023-10-30T08:44:17.772Z,1.35
2023-10-30T08:46:47.407Z,1.33
2023-10-30T08:49:17.172Z,1.40
2023-10-30T08:51:53.622Z,1.40
2023-10-30T08:54:30.775Z,1.20
2023-10-30T08:57:14.504Z,1.35
2023-10-30T08:59:46.924Z,1.60
2023-10-30T09:02:16.885Z,1.55
2023-10-30T09:04:47.008Z,1.40
2023-10-30T09:07:17.738Z,1.40
2023-10-30T09:09:47.923Z,1.58
2023-10-30T09:12:20.016Z,1.70
2023-10-30T09:14:49.550Z,1.48
2023-10-30T09:17:19.236Z,1.50
2023-10-30T09:19:49.039Z,1.50
2023-10-30T09:22:18.742Z,1.70
2023-10-30T09:24:48.293Z,1.60
2023-10-30T09:27:20.074Z,1.70
2023-10-30T09:29:50.084Z,1.40
2023-10-30T09:32:20.418Z,1.55
2023-10-30T09:34:50.092Z,1.20
2023-10-30T09:37:19.813Z,1.25
2023-10-30T09:39:50.075Z,1.40
2023-10-30T09:42:22.246Z,1.30
2023-10-30T09:44:52.296Z,1.30
2023-10-30T09:47:25.334Z,1.60
2023-10-30T09:49:57.243Z,1.35
2023-10-30T09:52:29.401Z,1.40
2023-10-30T09:55:12.982Z,1.27
2023-10-30T09:57:45.741Z,1.52
2023-10-30T10:00:17.448Z,1.50
2023-10-30T10:02:48.186Z,1.42
2023-10-30T10:05:18.763Z,1.25
2023-10-30T10:07:49.101Z,1.30
2023-10-30T10:10:20.098Z,1.70
2023-10-30T10:12:54.539Z,1.77
2023-10-30T10:15:24.406Z,1.55
2023-10-30T10:17:54.370Z,1.73
2023-10-30T10:20:25.577Z,1.65
2023-10-30T10:22:55.322Z,1.70
2023-10-30T10:25:25.047Z,1.50
2023-10-30T10:27:56.685Z,1.88
2023-10-30T10:30:26.864Z,1.77
2023-10-30T10:32:59.697Z,1.90
2023-10-30T10:35:29.348Z,1.90
2023-10-30T10:38:14.951Z,1.60
2023-10-30T10:40:46.984Z,1.50
2023-10-30T10:43:22.950Z,1.50
2023-10-30T10:45:55.474Z,1.63
2023-10-30T10:48:30.363Z,1.75
2023-10-30T10:51:04.787Z,1.60
2023-10-30T10:53:37.408Z,1.75
2023-10-30T10:56:10.274Z,1.67
2023-10-30T10:58:50.866Z,1.85
2023-10-30T11:01:23.483Z,1.70
2023-10-30T11:03:53.536Z,2.13
2023-10-30T11:06:35.084Z,1.80
2023-10-30T11:09:12.848Z,1.73
2023-10-30T11:11:56.971Z,1.67
2023-10-30T11:14:50.321Z,1.70
2023-10-30T11:17:30.117Z,1.85
2023-10-30T11:20:06.870Z,1.70
2023-10-30T11:22:41.109Z,1.60
2023-10-30T11:25:57.961Z,1.60
2023-10-30T11:28:29.706Z,1.70
2023-10-30T11:31:10.161Z,1.45
2023-10-30T11:33:42.759Z,1.50
2023-10-30T11:36:31.588Z,1.70
2023-10-30T11:39:16.370Z,1.48
2023-10-30T11:41:47.507Z,1.60
2023-10-30T11:44:17.340Z,1.55
2023-10-30T11:46:49.636Z,1.77
2023-10-30T11:49:22.073Z,1.80
2023-10-30T11:51:55.947Z,1.88
2023-10-30T11:54:27.041Z,2.05
2023-10-30T11:56:57.115Z,1.80
2023-10-30T11:59:28.753Z,1.80
2023-10-30T12:02:02.566Z,1.98
2023-10-30T12:04:34.531Z,1.70
2023-10-30T12:07:05.932Z,1.70
2023-10-30T12:09:35.893Z,1.95
2023-10-30T12:12:06.241Z,1.70
2023-10-30T12:14:36.297Z,1.95
2023-10-30T12:17:08.204Z,1.73
2023-10-30T12:19:39.901Z,2.00
2023-10-30T12:22:09.869Z,2.40
2023-10-30T12:24:39.601Z,1.95
2023-10-30T12:27:10.047Z,2.17
2023-10-30T12:29:41.706Z,2.30
2023-10-30T12:32:13.588Z,2.13
2023-10-30T12:34:43.285Z,2.50
2023-10-30T12:37:25.233Z,2.00
2023-10-30T12:40:09.191Z,2.10
2023-10-30T12:42:41.486Z,2.17
2023-10-30T12:45:13.445Z,2.28
2023-10-30T12:47:47.066Z,2.10
2023-10-30T12:50:18.863Z,2.00
2023-10-30T12:52:48.774Z,2.25
2023-10-30T12:55:18.370Z,2.08
2023-10-30T12:57:48.165Z,2.17
2023-10-30T13:00:18.201Z,1.85
2023-10-30T13:02:49.984Z,1.88
2023-10-30T13:05:20.352Z,1.80
2023-10-30T13:07:49.848Z,2.13
2023-10-30T13:10:20.018Z,1.85
2023-10-30T13:12:49.755Z,2.00
2023-10-30T13:15:21.001Z,1.70
2023-10-30T13:17:54.190Z,1.90
2023-10-30T13:20:23.801Z,1.83
2023-10-30T13:22:54.122Z,1.83
2023-10-30T13:25:24.543Z,2.00
2023-10-30T13:27:54.344Z,1.90
2023-10-30T13:30:23.932Z,1.80
2023-10-30T13:32:57.734Z,1.95
2023-10-30T13:35:27.672Z,1.90
2023-10-30T13:37:57.279Z,1.90
2023-10-30T13:40:27.043Z,1.90
2023-10-30T13:43:01.653Z,2.03
2023-10-30T13:45:31.577Z,1.90
2023-10-30T13:48:03.268Z,1.60
2023-10-30T13:50:32.756Z,2.08
2023-10-30T13:53:02.646Z,2.00
2023-10-30T13:55:32.180Z,1.90
2023-10-30T13:58:02.100Z,1.83
2023-10-30T14:00:33.563Z,1.70
2023-10-30T14:03:05.929Z,1.80
2023-10-30T14:05:35.889Z,1.60
2023-10-30T14:08:06.048Z,1.58
2023-10-30T14:10:35.781Z,2.00
2023-10-30T14:13:08.279Z,1.75
2023-10-30T14:15:37.890Z,1.77
2023-10-30T14:18:09.600Z,2.25
2023-10-30T14:20:39.391Z,1.70
2023-10-30T14:23:09.084Z,1.90
2023-10-30T14:25:38.746Z,1.90
2023-10-30T14:28:08.310Z,1.73
2023-10-30T14:30:38.342Z,1.90
2023-10-30T14:33:12.582Z,2.00
2023-10-30T14:35:45.106Z,2.00
2023-10-30T14:38:15.180Z,1.90
2023-10-30T14:40:44.910Z,1.70
2023-10-30T14:43:14.439Z,1.90
2023-10-30T14:45:44.166Z,1.60
2023-10-30T14:48:15.689Z,1.80
2023-10-30T14:50:45.796Z,1.90
2023-10-30T14:53:15.314Z,2.08
2023-10-30T14:55:44.927Z,1.95
2023-10-30T14:58:14.446Z,1.80
2023-10-30T15:00:44.328Z,1.83
2023-10-30T15:03:15.898Z,1.88
2023-10-30T15:05:46.555Z,1.80
2023-10-30T15:08:16.159Z,1.90
2023-10-30T15:10:57.458Z,1.75
2023-10-30T15:13:27.011Z,1.88
2023-10-30T15:15:56.834Z,1.92
2023-10-30T15:18:28.356Z,1.92
2023-10-30T15:20:58.028Z,1.90
2023-10-30T15:23:30.759Z,1.73
2023-10-30T15:26:03.628Z,1.92
2023-10-30T15:28:33.236Z,1.90
2023-10-30T15:31:03.004Z,1.70
2023-10-30T15:33:34.727Z,2.05
2023-10-30T15:36:04.949Z,1.83
2023-10-30T15:38:34.571Z,1.95
2023-10-30T15:41:04.143Z,1.58
2023-10-30T15:43:33.763Z,1.88
2023-10-30T15:46:03.321Z,2.00
2023-10-30T15:48:35.109Z,1.80
2023-10-30T15:51:05.170Z,1.65
2023-10-30T15:58:46.483Z,1.65
2023-10-30T16:01:17.087Z,1.95
2023-10-30T16:03:48.655Z,1.80
2023-10-30T16:06:18.672Z,1.90
2023-10-30T16:08:48.553Z,1.60
2023-10-30T16:13:50.639Z,1.70
2023-10-30T16:16:20.377Z,1.80
2023-10-30T16:21:36.527Z,1.80
2023-10-30T16:24:06.768Z,2.10
2023-10-30T16:26:47.674Z,1.90
2023-10-30T16:29:17.706Z,1.70
2023-10-30T16:31:47.393Z,1.90
2023-10-30T16:34:32.213Z,1.55
2023-10-30T16:37:04.819Z,1.83
2023-10-30T16:39:34.384Z,1.85
2023-10-30T16:42:19.464Z,1.70
2023-10-30T16:44:52.675Z,1.80
2023-10-30T16:47:22.844Z,1.58
2023-10-30T16:49:54.280Z,1.70
2023-10-30T16:52:24.005Z,1.73
2023-10-30T16:54:53.760Z,1.85
2023-10-30T16:57:24.654Z,1.90
2023-10-30T16:59:55.248Z,1.80
2023-10-30T17:02:25.131Z,1.60
2023-10-30T17:04:57.581Z,1.70
2023-10-30T17:07:27.613Z,1.80
2023-10-30T17:09:57.486Z,2.00
2023-10-30T17:12:27.096Z,1.90
2023-10-30T17:14:56.919Z,1.70
2023-10-30T17:17:26.544Z,1.70
2023-10-30T17:19:58.450Z,2.00
2023-10-30T17:22:28.101Z,1.80
2023-10-30T17:24:57.896Z,1.95
2023-10-30T17:27:27.371Z,1.98
2023-10-30T17:29:56.965Z,1.80
2023-10-30T17:32:26.796Z,1.73
2023-10-30T17:34:58.536Z,1.77
2023-10-30T17:37:28.291Z,1.70
2023-10-30T17:40:00.360Z,1.70
2023-10-30T17:42:29.943Z,2.03
2023-10-30T17:44:59.593Z,1.60
2023-10-30T17:47:36.813Z,1.80
2023-10-30T17:50:10.107Z,1.65
2023-10-30T17:52:42.708Z,1.67
2023-10-30T17:55:14.367Z,1.83
2023-10-30T17:57:44.140Z,1.45
2023-10-30T18:00:15.200Z,1.45
2023-10-30T18:02:45.023Z,1.63
2023-10-30T18:05:16.715Z,1.70
2023-10-30T18:07:48.470Z,1.63
2023-10-30T18:10:20.947Z,1.63
2023-10-30T18:12:50.589Z,1.58
2023-10-30T18:15:20.612Z,1.67
2023-10-30T18:17:51.792Z,1.58
2023-10-30T18:20:25.732Z,1.80
2023-10-30T18:22:55.598Z,1.75
2023-10-30T18:25:25.888Z,1.40
2023-10-30T18:27:55.777Z,1.67
2023-10-30T18:30:25.505Z,1.50
2023-10-30T18:32:55.160Z,1.60
2023-10-30T18:35:26.836Z,1.52
2023-10-30T18:37:56.451Z,1.50
2023-10-30T18:40:28.069Z,1.48
2023-10-30T18:42:57.836Z,1.30
2023-10-30T18:45:29.043Z,1.42
2023-10-30T18:47:58.949Z,1.30
2023-10-30T18:50:33.139Z,1.77
2023-10-30T18:53:03.062Z,1.65
2023-10-30T18:55:32.704Z,1.70
2023-10-30T18:58:02.650Z,1.60
2023-10-30T19:00:33.472Z,1.60
2023-10-30T19:03:03.723Z,1.85
2023-10-30T19:05:35.387Z,1.70
2023-10-30T19:08:04.990Z,1.58
2023-10-30T19:10:34.748Z,1.60
2023-10-30T19:13:05.830Z,1.70
2023-10-30T19:15:35.550Z,1.67
2023-10-30T19:18:05.179Z,1.45
2023-10-30T19:20:37.817Z,1.60
2023-10-30T19:23:07.470Z,1.40
2023-10-30T19:25:37.178Z,1.60
2023-10-30T19:28:07.114Z,1.58
2023-10-30T19:30:36.681Z,1.55
2023-10-30T19:33:06.532Z,1.75
2023-10-30T19:35:38.336Z,1.63
2023-10-30T19:38:09.793Z,1.70
2023-10-30T19:40:40.310Z,1.70
2023-10-30T19:43:09.920Z,1.60
2023-10-30T19:45:39.572Z,1.80
2023-10-30T19:48:09.942Z,1.58
2023-10-30T19:50:42.337Z,1.70
2023-10-30T19:53:12.522Z,1.70
2023-10-30T19:55:42.069Z,1.85
2023-10-30T19:58:12.062Z,1.85
2023-10-30T20:00:41.959Z,1.85
2023-10-30T20:03:12.575Z,1.70
2023-10-30T20:05:44.775Z,1.95
2023-10-30T20:08:14.583Z,1.70
2023-10-30T20:10:44.585Z,1.73
2023-10-30T20:13:14.629Z,1.75
2023-10-30T20:15:44.352Z,1.90
2023-10-30T20:18:15.657Z,1.75
2023-10-30T20:20:47.425Z,1.70
2023-10-30T20:23:17.178Z,1.90
2023-10-30T20:25:46.714Z,1.90
2023-10-30T20:28:16.630Z,1.98
2023-10-30T20:30:46.249Z,2.00
2023-10-30T20:33:16.835Z,1.67
2023-10-30T20:35:48.883Z,1.67
2023-10-30T20:38:18.678Z,2.00
2023-10-30T20:40:48.518Z,1.83
2023-10-30T20:43:21.372Z,1.88
2023-10-30T20:45:50.961Z,1.92
2023-10-30T20:48:20.541Z,1.95
2023-10-30T20:50:51.680Z,1.90
2023-10-30T20:53:21.430Z,2.00
2023-10-30T20:55:51.122Z,1.95
2023-10-30T20:58:20.837Z,1.80
2023-10-30T21:00:50.621Z,2.00
2023-10-30T21:03:21.762Z,1.92
2023-10-30T21:05:53.484Z,1.73
2023-10-30T21:08:23.781Z,1.88
2023-10-30T21:10:57.067Z,1.90
2023-10-30T21:13:27.080Z,1.75
2023-10-30T21:15:56.992Z,1.80
2023-10-30T21:18:26.717Z,1.83
2023-10-30T21:20:59.912Z,1.98
2023-10-30T21:23:30.115Z,1.90
2023-10-30T21:25:59.778Z,1.83
2023-10-30T21:28:29.821Z,1.83
2023-10-30T21:30:59.607Z,1.90
2023-10-30T21:33:29.275Z,1.83
2023-10-30T21:36:00.845Z,1.83
2023-10-30T21:38:30.456Z,1.88
2023-10-30T21:41:00.151Z,1.83
2023-10-30T21:43:29.925Z,1.90
2023-10-30T21:45:59.903Z,1.80
2023-10-30T21:48:29.540Z,1.90
2023-10-30T21:51:01.107Z,1.75
2023-10-30T21:53:31.021Z,1.90
2023-10-30T21:56:00.933Z,1.90
2023-10-30T21:58:31.040Z,1.45
2023-10-30T22:01:00.726Z,1.75
2023-10-30T22:03:30.630Z,1.80
2023-10-30T22:06:03.454Z,1.80
2023-10-30T22:08:34.393Z,1.70
2023-10-30T22:11:04.395Z,1.80
2023-10-30T22:13:34.084Z,1.90
2023-10-30T22:16:03.988Z,1.60
2023-10-30T22:18:33.785Z,1.77
2023-10-30T22:21:07.252Z,1.67
2023-10-30T22:23:37.095Z,1.70
2023-10-30T22:26:09.420Z,1.80
2023-10-30T22:28:39.206Z,1.85
2023-10-30T22:31:09.312Z,1.80
2023-10-30T22:33:39.810Z,1.80
2023-10-30T22:36:14.152Z,1.70
2023-10-30T22:38:44.056Z,1.90
2023-10-30T22:41:13.755Z,1.80
2023-10-30T22:43:43.497Z,1.70
2023-10-30T22:46:14.057Z,1.70
2023-10-30T22:48:45.046Z,1.50
2023-10-30T22:51:17.403Z,1.80
2023-10-30T22:53:47.235Z,1.70
2023-10-30T22:56:16.884Z,1.67
2023-10-30T22:58:47.478Z,1.50
2023-10-30T23:01:19.762Z,1.80
2023-10-30T23:03:50.767Z,1.65
2023-10-30T23:06:22.905Z,1.42
2023-10-30T23:08:52.568Z,1.80
2023-10-30T23:11:22.612Z,1.80
2023-10-30T23:13:52.434Z,1.60
2023-10-30T23:16:22.203Z,1.58
2023-10-30T23:18:52.033Z,1.70
2023-10-30T23:21:24.168Z,1.80
2023-10-30T23:23:54.924Z,1.77
2023-10-30T23:26:24.809Z,1.73
2023-10-30T23:28:54.826Z,1.80
2023-10-30T23:31:24.526Z,1.70
2023-10-30T23:33:54.334Z,1.70
2023-10-30T23:36:26.027Z,1.67
2023-10-30T23:38:55.664Z,1.42
2023-10-30T23:41:25.413Z,1.70
2023-10-30T23:43:55.104Z,1.60
2023-10-30T23:46:31.790Z,1.83
2023-10-30T23:49:08.805Z,1.42
2023-10-30T23:51:40.370Z,1.63
2023-10-30T23:54:10.315Z,1.60
2023-10-30T23:56:40.178Z,1.80
2023-10-30T23:59:10.050Z,1.77
